University Gardens, New York
Current Conditions -  °F | °C
As of 8:51 AM on Sunday 23 Nov 2014 (Local Time) from KLGA Reporting Station
Broken Clouds Broken Clouds  
Wind Chill: 41°   Ceiling: 12000
Heat Index: 45°   Visibility: 10mi
Dew Point: 23°   Wind: 8mph
Humidity: 42%   Direction: 200°SSW
Pressure: 30.21"   Gusts: NA
Location:  40.7702°N, 73.7108°W
Report Text: KLGA 231351Z 20007KT 10SM FEW046 SCT085 BKN120 BKN160 BKN250 07/M05 A3021 RMK AO2 SLP231 ACSL SE-S VCSH NW-N T00721050
Loading
Personal Weather Stations






























Interactive Weather Map New forecast layout! Learn more

10-Day Weather Forecast

Advertisements
Track Severe Weather on mobile